createdAt,value
2022-12-25T00:06:16.099Z,7.90
2022-12-25T00:08:44.535Z,7.90
2022-12-25T00:11:14.536Z,7.90
2022-12-25T00:54:53.958Z,7.70
2022-12-25T00:57:20.929Z,7.60
2022-12-25T00:59:47.795Z,7.50
2022-12-25T01:02:23.723Z,7.50
2022-12-25T01:04:55.515Z,7.50
2022-12-25T01:07:24.431Z,7.40
2022-12-25T04:27:40.234Z,6.00
2022-12-25T04:30:26.413Z,5.80
2022-12-25T04:41:00.391Z,5.30
2022-12-25T04:43:27.489Z,5.20
2022-12-25T04:56:41.586Z,5.10
2022-12-25T05:09:54.139Z,5.30
2022-12-25T05:12:21.052Z,5.30
2022-12-25T05:28:19.078Z,5.80
2022-12-25T05:30:45.897Z,6.00
2022-12-25T05:33:13.202Z,6.00
2022-12-25T06:26:58.118Z,5.40
2022-12-25T06:29:25.465Z,5.30
2022-12-25T06:56:09.515Z,4.80
2022-12-25T06:58:37.229Z,4.80
2022-12-25T07:06:28.184Z,4.60
2022-12-25T07:08:55.513Z,4.70
2022-12-25T07:11:22.368Z,4.80
2022-12-25T07:21:54.562Z,5.00
2022-12-25T07:24:22.733Z,5.00
2022-12-25T07:26:51.387Z,5.00
2022-12-25T07:29:19.949Z,5.00
2022-12-25T07:31:47.346Z,5.20
2022-12-25T07:36:56.184Z,5.20
2022-12-25T07:50:11.519Z,5.40
2022-12-25T07:55:19.384Z,5.70
2022-12-25T07:57:46.861Z,5.80
2022-12-25T08:16:26.029Z,5.80
2022-12-25T08:18:54.063Z,5.60
2022-12-25T10:01:35.633Z,7.50
2022-12-25T10:04:08.841Z,7.30
2022-12-25T10:06:53.845Z,7.30
2022-12-25T10:09:28.875Z,7.40
2022-12-25T10:12:47.023Z,7.60
2022-12-25T10:16:01.751Z,7.50
2022-12-25T10:18:57.291Z,7.80
2022-12-25T10:21:24.592Z,7.80
2022-12-25T10:24:23.057Z,7.60
2022-12-25T10:26:53.510Z,7.60
2022-12-25T10:32:02.117Z,7.60
2022-12-25T10:34:29.637Z,7.50
2022-12-25T10:36:58.302Z,7.60
2022-12-25T10:39:26.369Z,7.80
2022-12-25T10:42:03.486Z,7.90
2022-12-25T10:44:33.494Z,8.00
2022-12-25T10:55:13.696Z,8.30
2022-12-25T11:32:49.397Z,9.10
2022-12-25T11:35:18.208Z,9.10
2022-12-25T11:37:49.597Z,8.90
2022-12-25T11:40:20.792Z,9.00
2022-12-25T11:42:55.568Z,8.90
2022-12-25T11:45:33.229Z,9.00
2022-12-25T11:48:06.930Z,9.00
2022-12-25T11:53:30.054Z,9.10
2022-12-25T11:56:08.095Z,9.20
2022-12-25T11:58:42.670Z,9.50
2022-12-25T12:01:22.582Z,9.60
2022-12-25T12:06:52.251Z,9.50
2022-12-25T12:09:45.937Z,9.50
2022-12-25T12:12:49.201Z,9.40
2022-12-25T12:15:29.738Z,9.20
2022-12-25T12:20:57.480Z,9.10
2022-12-25T12:23:25.263Z,9.20
2022-12-25T12:25:53.122Z,9.20
2022-12-25T12:50:02.121Z,9.60
2022-12-25T12:55:15.147Z,9.60
2022-12-25T12:57:42.925Z,9.70
2022-12-25T13:00:16.931Z,10.00
2022-12-25T13:08:46.526Z,9.80
2022-12-25T13:11:13.740Z,9.90
2022-12-25T13:13:43.834Z,9.90
2022-12-25T13:16:36.074Z,9.90
2022-12-25T13:19:12.385Z,9.90
2022-12-25T13:21:40.492Z,9.90
2022-12-25T13:26:46.832Z,9.60
2022-12-25T13:29:26.576Z,9.60
2022-12-25T13:31:53.516Z,9.40
2022-12-25T13:34:28.746Z,9.40
2022-12-25T13:36:56.373Z,9.20
2022-12-25T13:39:25.718Z,9.30
2022-12-25T13:42:07.001Z,9.20
2022-12-25T13:44:43.450Z,9.10
2022-12-25T13:47:30.329Z,9.10
2022-12-25T13:49:59.047Z,9.10
2022-12-25T13:52:37.969Z,9.20
2022-12-25T13:55:11.346Z,9.10
2022-12-25T13:57:41.085Z,9.00
2022-12-25T14:00:37.095Z,9.00
2022-12-25T14:03:07.835Z,9.00
2022-12-25T14:05:43.375Z,8.90
2022-12-25T14:08:17.720Z,8.70
2022-12-25T14:10:50.169Z,8.50
2022-12-25T14:13:18.292Z,8.60
2022-12-25T14:15:48.338Z,8.50
2022-12-25T14:18:18.277Z,8.50
2022-12-25T14:21:08.474Z,8.40
2022-12-25T14:23:47.797Z,8.40
2022-12-25T14:26:25.198Z,8.40
2022-12-25T14:29:00.789Z,8.40
2022-12-25T14:31:31.329Z,8.40
2022-12-25T14:41:56.577Z,8.50
2022-12-25T14:44:40.112Z,8.40
2022-12-25T14:49:49.403Z,8.50
2022-12-25T15:01:01.460Z,8.40
2022-12-25T15:03:32.394Z,8.40
2022-12-25T15:06:02.271Z,8.40
2022-12-25T15:08:31.282Z,8.40
2022-12-25T15:11:03.166Z,8.30
2022-12-25T15:13:36.107Z,8.40
2022-12-25T15:16:26.860Z,8.30
2022-12-25T15:18:56.496Z,8.30
2022-12-25T15:21:33.475Z,8.30
2022-12-25T15:24:03.085Z,8.30
2022-12-25T15:26:34.760Z,8.10
2022-12-25T15:29:01.740Z,8.10
2022-12-25T15:31:33.865Z,8.00
2022-12-25T15:34:16.956Z,8.00
2022-12-25T15:36:44.495Z,8.00
2022-12-25T15:39:12.848Z,8.00
2022-12-25T15:42:01.111Z,7.90
2022-12-25T15:44:28.390Z,7.90
2022-12-25T15:46:58.362Z,7.90
2022-12-25T15:49:27.159Z,7.90
2022-12-25T15:51:54.464Z,8.00
2022-12-25T15:54:21.865Z,7.90
2022-12-25T15:56:55.053Z,8.10
2022-12-25T15:59:22.878Z,8.10
2022-12-25T16:01:58.985Z,8.10
2022-12-25T16:04:28.280Z,8.30
2022-12-25T16:07:01.067Z,8.30
2022-12-25T16:09:28.129Z,8.20
2022-12-25T16:11:55.513Z,8.20
2022-12-25T16:14:34.390Z,8.20
2022-12-25T16:17:01.965Z,8.10
2022-12-25T16:19:29.050Z,8.00
2022-12-25T16:21:58.738Z,8.00
2022-12-25T16:24:25.663Z,7.90
2022-12-25T16:26:59.663Z,7.90
2022-12-25T16:29:27.048Z,7.80
2022-12-25T16:31:54.473Z,7.80
2022-12-25T16:34:23.097Z,7.80
2022-12-25T16:36:50.120Z,7.80
2022-12-25T16:39:19.945Z,7.70
2022-12-25T16:41:48.793Z,7.70
2022-12-25T16:44:16.814Z,7.70
2022-12-25T16:46:46.897Z,7.70
2022-12-25T16:49:15.303Z,7.70
2022-12-25T16:51:43.227Z,7.60
2022-12-25T16:54:12.999Z,7.60
2022-12-25T16:56:41.638Z,7.70
2022-12-25T16:59:09.518Z,7.70
2022-12-25T17:01:38.219Z,7.50
2022-12-25T17:04:08.025Z,7.60
2022-12-25T17:06:35.401Z,7.60
2022-12-25T17:09:04.375Z,7.60
2022-12-25T17:11:34.615Z,7.70
2022-12-25T17:14:11.752Z,7.60
2022-12-25T17:16:41.959Z,7.60
2022-12-25T17:19:18.655Z,7.50
2022-12-25T17:21:46.253Z,7.70
2022-12-25T17:24:14.030Z,7.60
2022-12-25T17:26:44.507Z,7.50
2022-12-25T17:29:15.929Z,7.50
2022-12-25T17:31:53.363Z,7.60
2022-12-25T17:34:20.323Z,7.60
2022-12-25T17:36:50.132Z,7.40
2022-12-25T17:39:17.559Z,7.40
2022-12-25T17:41:45.719Z,7.30
2022-12-25T17:44:15.455Z,7.40
2022-12-25T17:46:44.280Z,7.40
2022-12-25T17:49:21.664Z,7.40
2022-12-25T17:51:50.552Z,7.40
2022-12-25T17:54:18.055Z,7.40
2022-12-25T17:56:52.113Z,7.40
2022-12-25T18:02:02.930Z,7.30
2022-12-25T18:04:33.314Z,7.30
2022-12-25T18:09:40.849Z,7.30
2022-12-25T18:12:11.206Z,7.40
2022-12-25T18:22:43.552Z,7.20
2022-12-25T18:27:53.334Z,7.20
2022-12-25T18:32:56.588Z,7.20
2022-12-25T18:35:29.635Z,7.20
2022-12-25T18:37:57.716Z,7.10
2022-12-25T18:40:33.932Z,7.10
2022-12-25T18:53:48.065Z,7.30
2022-12-25T19:01:32.298Z,7.20
2022-12-25T19:04:05.080Z,7.20
2022-12-25T19:17:19.074Z,7.30
2022-12-25T19:19:48.423Z,7.20
2022-12-25T19:22:17.187Z,7.10
2022-12-25T19:24:46.531Z,7.30
2022-12-25T19:27:13.637Z,7.30
2022-12-25T19:29:45.770Z,7.20
2022-12-25T19:32:15.332Z,7.20
2022-12-25T19:34:42.731Z,7.20
2022-12-25T19:37:10.119Z,7.20
2022-12-25T19:39:38.784Z,7.20
2022-12-25T19:42:05.893Z,7.30
2022-12-25T19:44:33.469Z,7.20
2022-12-25T19:47:01.840Z,7.20
2022-12-25T19:49:30.527Z,7.30
2022-12-25T19:51:58.217Z,7.20
2022-12-25T20:05:12.224Z,6.90
2022-12-25T20:15:45.564Z,6.90
2022-12-25T20:18:13.167Z,6.90
2022-12-25T20:20:42.325Z,6.90
2022-12-25T20:23:10.514Z,7.00
2022-12-25T20:25:42.714Z,6.90
2022-12-25T20:28:11.672Z,7.00
2022-12-25T20:30:42.056Z,7.00
2022-12-25T20:35:52.082Z,6.90
2022-12-25T20:38:19.045Z,7.10
2022-12-25T20:41:25.005Z,7.00
2022-12-25T20:43:38.939Z,7.00
2022-12-25T20:54:16.664Z,7.00
2022-12-25T21:34:20.829Z,7.00
2022-12-25T21:39:23.587Z,6.90
2022-12-25T21:41:54.343Z,6.90
2022-12-25T21:47:03.726Z,6.90
2022-12-25T21:49:51.568Z,6.90
2022-12-25T21:52:18.710Z,7.00
2022-12-25T22:00:10.483Z,7.20
2022-12-25T22:10:37.718Z,7.40
2022-12-25T22:16:05.871Z,7.40
2022-12-25T22:21:21.367Z,7.40
2022-12-25T22:23:48.781Z,7.30
